createdAt,value
2018-07-20T00:02:25.656Z,6.17
2018-07-20T00:07:28.726Z,6.47
2018-07-20T00:12:31.781Z,7.07
2018-07-20T00:17:34.841Z,6.43
2018-07-20T00:22:37.880Z,6.90
2018-07-20T00:27:40.959Z,6.60
2018-07-20T00:32:43.985Z,6.03
2018-07-20T00:37:47.044Z,6.37
2018-07-20T00:42:50.098Z,7.47
2018-07-20T00:47:53.174Z,6.87
2018-07-20T00:52:56.241Z,6.67
2018-07-20T00:57:59.300Z,7.03
2018-07-20T01:03:02.411Z,7.33
2018-07-20T01:08:05.483Z,7.77
2018-07-20T01:13:08.540Z,7.43
2018-07-20T01:18:11.585Z,7.10
2018-07-20T01:23:14.640Z,7.20
2018-07-20T01:28:17.841Z,7.07
2018-07-20T01:33:20.900Z,6.70
2018-07-20T01:38:23.968Z,5.93
2018-07-20T01:43:27.025Z,9.33
2018-07-20T01:48:30.093Z,8.13
2018-07-20T01:53:33.145Z,8.40
2018-07-20T01:58:36.205Z,6.60
2018-07-20T02:03:39.284Z,6.73
2018-07-20T02:08:43.255Z,6.30
2018-07-20T02:13:46.329Z,6.20
2018-07-20T02:18:49.400Z,7.10
2018-07-20T02:23:52.468Z,7.07
2018-07-20T02:28:55.529Z,7.43
2018-07-20T02:33:58.605Z,8.43
2018-07-20T02:39:01.667Z,8.93
2018-07-20T02:44:04.733Z,6.97
2018-07-20T02:49:08.021Z,9.63
2018-07-20T02:54:11.077Z,7.03
2018-07-20T02:59:14.142Z,6.83
2018-07-20T03:04:17.209Z,7.03
2018-07-20T03:09:20.289Z,7.93
2018-07-20T03:14:23.353Z,7.03
2018-07-20T03:19:26.401Z,6.40
2018-07-20T03:24:29.473Z,6.97
2018-07-20T03:29:32.528Z,8.30
2018-07-20T03:34:35.621Z,6.73
2018-07-20T03:39:38.691Z,6.63
2018-07-20T03:44:41.754Z,6.63
2018-07-20T03:49:44.800Z,6.73
2018-07-20T03:54:47.864Z,6.63
2018-07-20T03:59:50.928Z,6.90
2018-07-20T04:04:53.990Z,5.90
2018-07-20T04:09:57.049Z,6.57
2018-07-20T04:15:00.105Z,5.67
2018-07-20T04:20:03.189Z,6.57
2018-07-20T04:25:06.593Z,6.23
2018-07-20T04:30:13.092Z,5.27
2018-07-20T04:35:16.174Z,6.17
2018-07-20T04:40:19.249Z,5.70
2018-07-20T04:45:22.304Z,6.00
2018-07-20T04:50:25.384Z,7.10
2018-07-20T04:55:28.432Z,10.30
2018-07-20T05:00:31.499Z,11.57
2018-07-20T05:05:34.571Z,13.57
2018-07-20T05:10:37.625Z,12.07
2018-07-20T05:15:40.682Z,12.63
2018-07-20T05:20:43.761Z,11.77
2018-07-20T05:25:46.833Z,9.30
2018-07-20T05:30:49.913Z,11.03
2018-07-20T05:35:52.985Z,10.73
2018-07-20T05:40:56.033Z,7.50
2018-07-20T05:45:59.080Z,8.40
2018-07-20T05:51:02.194Z,9.03
2018-07-20T05:56:05.287Z,9.27
2018-07-20T06:01:08.370Z,9.03
2018-07-20T06:06:11.440Z,13.13
2018-07-20T06:11:14.514Z,9.30
2018-07-20T06:16:17.576Z,19.23
2018-07-20T06:21:20.636Z,7.43
2018-07-20T06:26:23.884Z,10.50
2018-07-20T06:31:26.962Z,14.90
2018-07-20T06:36:30.033Z,15.73
2018-07-20T06:41:33.101Z,14.43
2018-07-20T06:46:36.739Z,5.90
2018-07-20T06:51:39.784Z,8.47
2018-07-20T06:56:42.838Z,6.97
2018-07-20T07:01:45.892Z,5.87
2018-07-20T07:06:48.957Z,4.70
2018-07-20T07:11:52.021Z,6.00
2018-07-20T07:16:55.093Z,7.53
2018-07-20T07:21:58.156Z,6.83
2018-07-20T07:27:01.231Z,8.23
2018-07-20T07:32:04.289Z,5.73
2018-07-20T07:37:07.333Z,4.90
2018-07-20T07:42:10.468Z,5.60
2018-07-20T07:47:13.554Z,5.47
2018-07-20T07:52:16.569Z,4.30
2018-07-20T07:57:19.635Z,5.27
2018-07-20T08:02:22.693Z,3.70
2018-07-20T08:07:25.732Z,8.47
2018-07-20T08:12:28.802Z,6.33
2018-07-20T08:17:31.875Z,8.33
2018-07-20T08:22:34.932Z,8.00
2018-07-20T08:27:37.985Z,8.50
2018-07-20T08:32:41.042Z,5.83
2018-07-20T08:37:44.113Z,3.70
2018-07-20T08:42:47.178Z,6.23
2018-07-20T08:47:50.232Z,5.57
2018-07-20T08:52:53.301Z,8.10
2018-07-20T08:57:56.350Z,7.10
2018-07-20T09:02:59.440Z,3.83
2018-07-20T09:08:02.496Z,6.17
2018-07-20T09:13:05.544Z,5.73
2018-07-20T09:18:08.604Z,4.73
2018-07-20T09:23:11.661Z,8.50
2018-07-20T09:28:14.767Z,4.63
2018-07-20T09:33:17.822Z,6.97
2018-07-20T09:38:20.888Z,5.90
2018-07-20T09:43:24.069Z,4.10
2018-07-20T09:48:27.141Z,5.30
2018-07-20T09:53:30.208Z,5.53
2018-07-20T09:58:33.357Z,7.67
2018-07-20T10:03:36.330Z,7.57
2018-07-20T10:08:39.388Z,3.47
2018-07-20T10:13:42.452Z,4.70
2018-07-20T10:18:45.501Z,4.97
2018-07-20T10:23:48.613Z,8.90
2018-07-20T10:28:51.664Z,5.10
2018-07-20T10:33:54.709Z,4.80
2018-07-20T10:38:57.784Z,4.80
2018-07-20T10:44:00.838Z,5.43
2018-07-20T10:49:03.880Z,7.07
2018-07-20T10:54:06.949Z,5.27
2018-07-20T10:59:10.021Z,4.73
2018-07-20T11:04:13.104Z,4.17
2018-07-20T11:09:16.162Z,4.50
2018-07-20T11:14:19.229Z,7.03
2018-07-20T11:19:22.288Z,4.70
2018-07-20T11:24:25.328Z,5.93
2018-07-20T11:29:28.394Z,5.87
2018-07-20T11:34:31.457Z,4.60
2018-07-20T11:39:34.517Z,5.03
2018-07-20T11:44:37.573Z,5.23
2018-07-20T11:49:40.628Z,4.80
2018-07-20T11:54:43.685Z,7.33
2018-07-20T11:59:46.786Z,6.70
2018-07-20T12:04:49.846Z,4.43
2018-07-20T12:09:52.904Z,5.23
2018-07-20T12:14:56.760Z,5.00
2018-07-20T12:19:59.840Z,5.93
2018-07-20T12:25:02.867Z,7.23
2018-07-20T12:30:05.912Z,4.20
2018-07-20T12:35:08.964Z,6.73
2018-07-20T12:40:12.017Z,6.37
2018-07-20T12:45:15.080Z,4.30
2018-07-20T12:50:18.178Z,7.07
2018-07-20T12:55:21.181Z,8.60
2018-07-20T13:00:24.251Z,4.63
2018-07-20T13:05:27.309Z,4.40
2018-07-20T13:10:30.356Z,5.57
2018-07-20T13:15:33.409Z,4.93
2018-07-20T13:20:36.473Z,4.60
2018-07-20T13:25:39.521Z,4.87
2018-07-20T13:30:42.589Z,5.63
2018-07-20T13:35:45.685Z,7.47
2018-07-20T13:40:48.803Z,6.10
2018-07-20T13:45:51.864Z,5.20
2018-07-20T13:50:55.045Z,4.70
2018-07-20T13:55:58.100Z,4.13
2018-07-20T14:01:01.162Z,4.83
2018-07-20T14:06:04.212Z,4.57
2018-07-20T14:11:07.272Z,4.90
2018-07-20T14:16:10.316Z,5.93
2018-07-20T14:21:13.389Z,5.07
2018-07-20T14:26:16.463Z,6.67
2018-07-20T14:31:19.512Z,7.63
2018-07-20T14:36:22.579Z,6.70
2018-07-20T14:41:25.646Z,4.40
2018-07-20T14:46:28.880Z,7.27
2018-07-20T14:51:31.985Z,5.30
2018-07-20T14:56:35.031Z,7.30
2018-07-20T15:01:38.094Z,5.17
2018-07-20T15:06:41.145Z,4.93
2018-07-20T15:11:44.195Z,6.73
2018-07-20T15:16:47.290Z,9.77
2018-07-20T15:21:50.428Z,5.07
2018-07-20T15:26:53.487Z,4.87
2018-07-20T15:31:56.557Z,5.10
2018-07-20T15:36:59.625Z,5.73
2018-07-20T15:42:02.681Z,7.30
2018-07-20T15:47:05.810Z,4.90
2018-07-20T15:57:11.922Z,6.90
2018-07-20T16:02:14.981Z,7.20
2018-07-20T16:07:18.057Z,6.13
2018-07-20T16:12:21.120Z,7.43
2018-07-20T16:17:24.188Z,5.10
2018-07-20T16:22:27.232Z,5.97
2018-07-20T16:27:30.301Z,7.47
2018-07-20T16:32:33.370Z,4.33
2018-07-20T16:37:36.424Z,5.23
2018-07-20T16:42:39.493Z,6.03
2018-07-20T16:47:42.560Z,9.33
2018-07-20T16:52:45.632Z,5.00
2018-07-20T16:57:48.697Z,4.57
2018-07-20T17:02:51.762Z,4.90
2018-07-20T17:07:54.828Z,7.97
2018-07-20T17:12:57.957Z,5.20
2018-07-20T17:18:01.002Z,6.73
2018-07-20T17:23:04.061Z,5.33
2018-07-20T17:28:07.152Z,6.77
2018-07-20T17:33:10.185Z,9.37
2018-07-20T17:38:13.256Z,5.90
2018-07-20T17:43:16.344Z,12.47
2018-07-20T17:48:19.412Z,30.50
2018-07-20T17:53:22.509Z,18.73
2018-07-20T17:58:25.580Z,22.13
2018-07-20T18:03:28.645Z,15.37
2018-07-20T18:08:31.696Z,10.70
2018-07-20T18:13:34.748Z,13.33
2018-07-20T18:18:37.808Z,11.97
2018-07-20T18:23:40.864Z,10.30
2018-07-20T18:28:43.905Z,9.03
2018-07-20T18:33:46.972Z,8.63
2018-07-20T18:38:50.021Z,15.93
2018-07-20T18:43:53.196Z,15.90
2018-07-20T18:48:56.257Z,14.23
2018-07-20T18:53:59.309Z,7.97
2018-07-20T18:59:02.378Z,10.30
2018-07-20T19:04:05.470Z,5.23
2018-07-20T19:09:09.801Z,6.00
2018-07-20T19:14:12.848Z,5.27
2018-07-20T19:19:15.912Z,9.33
2018-07-20T19:24:18.980Z,5.80
2018-07-20T19:29:22.041Z,6.43
2018-07-20T19:34:25.109Z,8.77
2018-07-20T19:39:28.221Z,13.23
2018-07-20T19:44:31.292Z,13.90
2018-07-20T19:49:34.383Z,26.50
2018-07-20T19:54:37.432Z,13.43
2018-07-20T19:59:40.521Z,28.87
2018-07-20T20:04:43.592Z,8.87
2018-07-20T20:09:46.673Z,8.40
2018-07-20T20:14:49.728Z,8.93
2018-07-20T20:19:52.801Z,8.83
2018-07-20T20:24:55.869Z,6.87
2018-07-20T20:29:58.928Z,11.13
2018-07-20T20:35:02.021Z,8.80
2018-07-20T20:40:06.084Z,10.80
2018-07-20T20:45:09.322Z,7.57
2018-07-20T20:50:12.415Z,8.00
2018-07-20T20:55:15.449Z,10.73
2018-07-20T21:00:18.517Z,8.63
2018-07-20T21:05:21.589Z,7.83
2018-07-20T21:10:24.655Z,7.83
2018-07-20T21:15:27.730Z,7.63
2018-07-20T21:20:30.776Z,7.50
2018-07-20T21:25:33.898Z,8.37
2018-07-20T21:30:36.897Z,7.80
2018-07-20T21:35:39.940Z,8.47
2018-07-20T21:40:42.996Z,9.07
2018-07-20T21:45:46.084Z,8.60
2018-07-20T21:50:49.169Z,8.57
2018-07-20T21:55:52.236Z,13.67
2018-07-20T22:00:55.390Z,11.17
2018-07-20T22:05:58.384Z,8.10
2018-07-20T22:11:01.453Z,9.33
2018-07-20T22:16:04.509Z,9.50
2018-07-20T22:21:07.565Z,8.63
2018-07-20T22:26:10.628Z,9.90
2018-07-20T22:31:13.699Z,10.60
2018-07-20T22:36:16.769Z,9.90
2018-07-20T22:41:19.829Z,9.63
2018-07-20T22:46:22.893Z,9.47
2018-07-20T22:51:25.952Z,9.63
2018-07-20T22:56:29.029Z,10.87
2018-07-20T23:01:32.090Z,9.23
2018-07-20T23:06:35.164Z,10.83
2018-07-20T23:11:38.585Z,11.03
2018-07-20T23:16:41.637Z,10.30
2018-07-20T23:21:44.694Z,11.03
2018-07-20T23:26:47.764Z,11.10
2018-07-20T23:31:50.808Z,11.57
2018-07-20T23:36:53.889Z,11.63
2018-07-20T23:41:56.961Z,12.83
2018-07-20T23:47:00.030Z,10.70
2018-07-20T23:52:03.093Z,10.40
2018-07-20T23:57:06.165Z,10.70
